Time;durP1;ratioP1;P1;durP2;ratioP2;P2;SDS_P1;SDS_P2;PMS_P1;PMS_P2;Temp;Humidity;BMP_temperature;BMP_pressure;BME280_temperature;BME280_humidity;BME280_pressure;Samples;Min_cycle;Max_cycle;Signal;HPM_P1;HPM_P2
2023/11/05 00:02:00;;;;;;;4.60;1.85;;;15.90;68.60;;;;;;5136421;27;20459;-60
2023/11/05 00:04:25;;;;;;;4.25;2.50;;;15.90;68.50;;;;;;5136267;27;20538;-59
2023/11/05 00:06:51;;;;;;;4.25;2.50;;;15.90;68.50;;;;;;5136995;27;20169;-60
2023/11/05 00:09:17;;;;;;;6.53;2.50;;;15.90;68.60;;;;;;5136579;27;20189;-60
2023/11/05 00:11:42;;;;;;;3.72;2.10;;;15.90;68.50;;;;;;5136395;27;20180;-60
2023/11/05 00:14:08;;;;;;;4.57;2.17;;;15.90;68.50;;;;;;5136531;27;20631;-61
2023/11/05 00:16:33;;;;;;;5.57;2.15;;;15.90;68.60;;;;;;5136656;27;20168;-60
2023/11/05 00:18:59;;;;;;;5.65;2.30;;;15.90;68.50;;;;;;5135600;27;20267;-60
2023/11/05 00:21:24;;;;;;;4.85;2.30;;;15.90;68.60;;;;;;5125914;27;20288;-60
2023/11/05 00:23:50;;;;;;;6.30;2.35;;;15.90;68.70;;;;;;5124900;27;20252;-59
2023/11/05 00:26:15;;;;;;;5.07;2.17;;;15.90;68.70;;;;;;5114710;28;20314;-60
2023/11/05 00:28:41;;;;;;;4.32;2.25;;;15.90;68.60;;;;;;5131375;27;20209;-59
2023/11/05 00:31:06;;;;;;;4.07;2.20;;;15.80;68.50;;;;;;5134879;27;20208;-59
2023/11/05 00:33:32;;;;;;;4.75;2.22;;;15.90;68.90;;;;;;5136317;27;20176;-59
2023/11/05 00:35:58;;;;;;;5.05;2.25;;;15.90;69.40;;;;;;5136075;27;20179;-59
2023/11/05 00:38:23;;;;;;;4.72;2.42;;;15.90;68.50;;;;;;5135699;27;20275;-59
2023/11/05 00:40:49;;;;;;;6.03;2.05;;;15.80;68.50;;;;;;5136473;27;20212;-59
2023/11/05 00:43:14;;;;;;;6.38;2.55;;;15.80;68.50;;;;;;5136202;27;20517;-60
2023/11/05 00:45:40;;;;;;;6.10;2.40;;;15.80;68.50;;;;;;5135431;27;20545;-61
2023/11/05 00:48:05;;;;;;;5.63;2.20;;;15.80;68.50;;;;;;5135798;27;20675;-59
2023/11/05 00:50:31;;;;;;;4.90;2.30;;;15.90;68.60;;;;;;5131258;27;20259;-60
2023/11/05 00:52:56;;;;;;;4.38;2.30;;;15.80;68.40;;;;;;5135227;27;20173;-60
2023/11/05 00:55:22;;;;;;;4.30;2.60;;;15.80;68.50;;;;;;5135769;27;20179;-60
2023/11/05 00:57:47;;;;;;;4.38;2.13;;;15.80;68.40;;;;;;5135223;27;20195;-60
2023/11/05 01:00:13;;;;;;;5.28;2.17;;;15.80;68.70;;;;;;5134534;27;20690;-60
2023/11/05 01:02:39;;;;;;;6.65;2.58;;;15.80;68.50;;;;;;5134952;27;20687;-59
2023/11/05 01:05:05;;;;;;;3.53;1.85;;;15.80;68.60;;;;;;5135797;27;20196;-59
2023/11/05 01:07:32;;;;;;;5.10;1.88;;;15.80;68.50;;;;;;5135172;27;20217;-59
2023/11/05 01:09:57;;;;;;;4.30;1.92;;;15.80;68.60;;;;;;5135486;27;20263;-60
2023/11/05 01:12:23;;;;;;;4.75;2.47;;;15.80;68.60;;;;;;5135395;27;20215;-60
2023/11/05 01:14:48;;;;;;;4.03;2.10;;;15.80;68.50;;;;;;5134696;27;20184;-60
2023/11/05 01:17:14;;;;;;;5.45;2.03;;;15.80;68.50;;;;;;5135398;27;20626;-60
2023/11/05 01:19:40;;;;;;;4.82;2.28;;;15.70;68.50;;;;;;5128044;27;20706;-59
2023/11/05 01:22:06;;;;;;;3.63;2.28;;;15.70;68.60;;;;;;5126534;27;20264;-60
2023/11/05 01:24:31;;;;;;;3.00;1.95;;;15.70;68.60;;;;;;5133484;27;20168;-59
2023/11/05 01:26:57;;;;;;;3.20;1.90;;;15.70;68.50;;;;;;5134824;27;20255;-60
2023/11/05 01:29:23;;;;;;;4.60;2.10;;;15.70;68.50;;;;;;5134256;27;20176;-59
2023/11/05 01:31:48;;;;;;;4.45;2.20;;;15.70;68.60;;;;;;5135285;27;20176;-60
2023/11/05 01:34:14;;;;;;;4.10;2.20;;;15.70;68.50;;;;;;5134410;27;20168;-59
2023/11/05 01:36:40;;;;;;;7.20;1.85;;;15.70;68.60;;;;;;5134452;27;20184;-59
2023/11/05 01:39:06;;;;;;;4.95;2.22;;;15.70;68.50;;;;;;5134147;27;20172;-59
2023/11/05 01:41:32;;;;;;;2.83;1.75;;;15.70;68.50;;;;;;5133594;27;20211;-59
2023/11/05 01:43:57;;;;;;;4.28;1.90;;;15.70;68.50;;;;;;5134856;27;20215;-60
2023/11/05 01:46:24;;;;;;;2.83;1.77;;;15.70;68.50;;;;;;5134637;27;20172;-59
2023/11/05 01:48:49;;;;;;;4.72;1.88;;;15.70;68.30;;;;;;5113135;27;20231;-60
2023/11/05 01:51:15;;;;;;;4.50;2.53;;;15.70;68.50;;;;;;5116137;27;20588;-60
2023/11/05 01:53:45;;;;;;;4.13;1.75;;;15.70;68.50;;;;;;5096238;28;20252;-60
2023/11/05 01:56:11;;;;;;;4.63;1.88;;;15.70;68.60;;;;;;5095677;28;20542;-60
2023/11/05 01:58:37;;;;;;;5.03;2.22;;;15.70;68.60;;;;;;5096123;28;20542;-60
2023/11/05 02:01:03;;;;;;;5.63;1.77;;;15.70;68.60;;;;;;5111914;28;20209;-59
2023/11/05 02:03:29;;;;;;;5.38;2.25;;;15.70;68.50;;;;;;5112070;28;20256;-60
2023/11/05 02:05:54;;;;;;;4.18;1.77;;;15.70;68.60;;;;;;5123245;27;20267;-59
2023/11/05 02:08:20;;;;;;;4.38;2.17;;;15.70;68.60;;;;;;5110461;28;20255;-60
2023/11/05 02:10:46;;;;;;;2.53;1.58;;;15.60;68.50;;;;;;5132474;27;20195;-60
2023/11/05 02:13:11;;;;;;;3.63;1.90;;;15.70;68.70;;;;;;5125332;27;20173;-60
2023/11/05 02:15:37;;;;;;;3.13;1.70;;;15.70;68.60;;;;;;5115623;27;20665;-60
2023/11/05 02:18:02;;;;;;;3.38;1.60;;;15.70;68.70;;;;;;5133041;27;20267;-59
2023/11/05 02:20:28;;;;;;;3.30;1.55;;;15.70;68.60;;;;;;5124633;27;20303;-60
2023/11/05 02:22:54;;;;;;;2.60;1.70;;;15.60;68.60;;;;;;5113575;27;20264;-60
2023/11/05 02:25:20;;;;;;;2.45;1.58;;;15.70;68.70;;;;;;5112171;28;20252;-60
2023/11/05 02:27:50;;;;;;;3.40;1.80;;;15.60;68.50;;;;;;5112072;28;20222;-60
2023/11/05 02:30:18;;;;;;;3.88;1.50;;;15.60;68.60;;;;;;5112425;28;20226;-60
2023/11/05 02:32:44;;;;;;;3.00;1.60;;;15.70;69.50;;;;;;5112455;28;20188;-59
2023/11/05 02:35:09;;;;;;;4.53;2.13;;;15.60;68.60;;;;;;5112508;28;20169;-59
2023/11/05 02:37:35;;;;;;;4.05;1.85;;;15.60;68.60;;;;;;5112928;28;20176;-59
2023/11/05 02:40:00;;;;;;;2.08;1.30;;;15.60;68.50;;;;;;5112230;28;20296;-59
2023/11/05 02:42:26;;;;;;;4.07;2.00;;;15.60;68.50;;;;;;5113636;28;20313;-59
2023/11/05 02:44:51;;;;;;;4.55;1.60;;;15.60;68.50;;;;;;5112664;28;20210;-60
2023/11/05 02:47:17;;;;;;;4.25;2.03;;;15.60;68.50;;;;;;5113223;28;20284;-59
2023/11/05 02:49:43;;;;;;;3.70;1.67;;;15.60;68.50;;;;;;5114135;27;20648;-60
2023/11/05 02:52:08;;;;;;;3.85;1.80;;;15.60;68.50;;;;;;5132882;27;20188;-60
2023/11/05 02:54:34;;;;;;;3.33;2.00;;;15.60;68.70;;;;;;5133720;27;20172;-60
2023/11/05 02:57:00;;;;;;;3.33;1.75;;;15.60;68.70;;;;;;5133597;27;20168;-60
2023/11/05 02:59:28;;;;;;;3.75;1.75;;;15.60;68.70;;;;;;5132986;27;20630;-59
2023/11/05 03:01:53;;;;;;;4.45;1.80;;;15.60;68.70;;;;;;5133296;27;20801;-59
2023/11/05 03:04:19;;;;;;;2.42;1.20;;;15.60;68.70;;;;;;5133224;27;20251;-60
2023/11/05 03:06:50;;;;;;;2.92;1.70;;;15.60;68.60;;;;;;5132922;27;20654;-60
2023/11/05 03:09:17;;;;;;;2.35;1.52;;;15.60;68.70;;;;;;5133115;28;20177;-60
2023/11/05 03:11:45;;;;;;;3.08;1.40;;;15.60;68.70;;;;;;5133031;28;20177;-61
2023/11/05 03:14:11;;;;;;;3.45;1.63;;;15.60;68.70;;;;;;5132702;28;20775;-60
2023/11/05 03:16:40;;;;;;;4.22;1.63;;;15.60;68.70;;;;;;5133156;28;20180;-60
2023/11/05 03:19:05;;;;;;;3.50;1.60;;;15.60;68.70;;;;;;5133089;27;20211;-59
2023/11/05 03:21:31;;;;;;;4.32;1.77;;;15.60;68.70;;;;;;5131219;27;20682;-60
2023/11/05 03:23:57;;;;;;;3.10;1.80;;;15.60;68.70;;;;;;5125804;27;20200;-60
2023/11/05 03:26:23;;;;;;;3.25;1.48;;;15.60;68.70;;;;;;5117151;28;20212;-59
2023/11/05 03:28:49;;;;;;;1.80;1.42;;;15.60;68.70;;;;;;5116476;28;20181;-60
2023/11/05 03:31:15;;;;;;;3.10;1.52;;;15.60;68.70;;;;;;5116668;28;20186;-59
2023/11/05 03:33:41;;;;;;;3.92;1.70;;;15.60;68.80;;;;;;5117259;28;20173;-59
2023/11/05 03:36:07;;;;;;;3.00;1.50;;;15.60;68.80;;;;;;5115630;28;20631;-60
2023/11/05 03:38:32;;;;;;;2.28;1.42;;;15.50;68.80;;;;;;5116951;28;20173;-59
2023/11/05 03:40:58;;;;;;;3.22;1.50;;;15.50;68.90;;;;;;5116023;28;20240;-60
2023/11/05 03:43:23;;;;;;;2.95;1.38;;;15.50;68.90;;;;;;5117101;28;20252;-60
2023/11/05 03:45:49;;;;;;;3.03;1.38;;;15.50;69.00;;;;;;5116731;28;20177;-60
2023/11/05 03:48:18;;;;;;;2.00;1.50;;;15.50;69.00;;;;;;5115580;28;20554;-61
2023/11/05 03:50:43;;;;;;;2.22;1.25;;;15.60;69.10;;;;;;5117364;27;20177;-58
2023/11/05 03:53:09;;;;;;;3.20;1.80;;;15.60;69.10;;;;;;5136413;27;20172;-60
2023/11/05 03:55:34;;;;;;;3.72;1.65;;;15.50;69.00;;;;;;5136253;27;20210;-59
2023/11/05 03:58:00;;;;;;;3.50;1.50;;;15.60;69.10;;;;;;5136722;27;20285;-59
2023/11/05 04:00:25;;;;;;;2.65;1.33;;;15.50;69.00;;;;;;5137021;27;20308;-58
2023/11/05 04:02:51;;;;;;;3.15;1.58;;;15.50;69.00;;;;;;5134303;27;20176;-59
2023/11/05 04:05:16;;;;;;;2.65;1.30;;;15.50;69.00;;;;;;5136855;27;20631;-60
2023/11/05 04:07:42;;;;;;;2.42;1.60;;;15.50;69.00;;;;;;5137203;27;20165;-59
2023/11/05 04:10:08;;;;;;;2.13;1.25;;;15.50;69.90;;;;;;5136071;27;20177;-59
2023/11/05 04:12:34;;;;;;;2.67;1.42;;;15.50;69.00;;;;;;5137090;27;20575;-59
2023/11/05 04:15:04;;;;;;;2.97;1.27;;;15.50;69.00;;;;;;5136581;27;20194;-59
2023/11/05 04:17:30;;;;;;;4.15;1.42;;;15.50;69.00;;;;;;5135428;27;20169;-60
2023/11/05 04:19:55;;;;;;;3.05;1.38;;;15.50;69.00;;;;;;5136297;27;20746;-59
2023/11/05 04:22:21;;;;;;;2.47;1.20;;;15.50;69.00;;;;;;5136308;27;20184;-59
2023/11/05 04:24:46;;;;;;;1.48;1.20;;;15.50;69.00;;;;;;5136088;27;20175;-59
2023/11/05 04:27:12;;;;;;;1.70;1.10;;;15.50;69.10;;;;;;5136338;27;20168;-59
2023/11/05 04:29:37;;;;;;;3.35;1.55;;;15.50;69.00;;;;;;5136956;27;20564;-59
2023/11/05 04:32:03;;;;;;;3.22;1.50;;;15.50;69.10;;;;;;5134415;27;20176;-59
2023/11/05 04:34:32;;;;;;;2.33;1.30;;;15.50;69.10;;;;;;5136573;27;20171;-59
2023/11/05 04:36:57;;;;;;;3.20;1.35;;;15.50;69.20;;;;;;5136529;27;20177;-59
2023/11/05 04:39:23;;;;;;;2.08;1.20;;;15.50;69.20;;;;;;5135389;27;20173;-58
2023/11/05 04:41:48;;;;;;;2.33;1.52;;;15.50;69.20;;;;;;5136757;27;20233;-60
2023/11/05 04:44:14;;;;;;;1.75;1.20;;;15.50;69.30;;;;;;5135731;27;20200;-60
2023/11/05 04:46:40;;;;;;;2.78;1.35;;;15.50;69.30;;;;;;5135812;27;20180;-60
2023/11/05 04:49:06;;;;;;;1.83;1.23;;;15.50;69.40;;;;;;5133050;27;20212;-60
2023/11/05 04:51:31;;;;;;;2.28;1.40;;;15.50;69.30;;;;;;5102997;27;20523;-60
2023/11/05 04:53:57;;;;;;;2.53;1.17;;;15.50;69.40;;;;;;5125560;27;20173;-60
2023/11/05 04:56:22;;;;;;;2.85;1.38;;;15.40;69.30;;;;;;5127422;27;20562;-61
2023/11/05 04:58:48;;;;;;;1.75;1.10;;;15.50;69.40;;;;;;5135442;27;20165;-60
2023/11/05 05:01:13;;;;;;;1.30;1.13;;;15.50;69.40;;;;;;5119880;27;20205;-60
2023/11/05 05:03:39;;;;;;;1.48;1.15;;;15.50;69.40;;;;;;5128026;27;20225;-61
2023/11/05 05:06:05;;;;;;;2.10;1.25;;;15.40;69.40;;;;;;5135001;27;20168;-60
2023/11/05 05:08:31;;;;;;;1.30;0.90;;;15.50;69.50;;;;;;5116100;27;20639;-60
2023/11/05 05:10:56;;;;;;;2.30;1.13;;;15.40;69.40;;;;;;5115603;28;20527;-60
2023/11/05 05:13:22;;;;;;;2.15;1.40;;;15.50;69.60;;;;;;5114438;28;20260;-60
2023/11/05 05:15:47;;;;;;;2.22;1.13;;;15.40;69.40;;;;;;5115416;28;20264;-60
2023/11/05 05:18:13;;;;;;;1.35;1.05;;;15.40;69.40;;;;;;5114974;28;20255;-60
2023/11/05 05:20:38;;;;;;;2.85;1.50;;;15.50;69.60;;;;;;5133490;27;20287;-59
2023/11/05 05:23:04;;;;;;;2.10;0.90;;;15.40;69.40;;;;;;5135044;27;20196;-60
2023/11/05 05:25:29;;;;;;;1.58;1.00;;;15.50;69.60;;;;;;5135550;27;20180;-59
2023/11/05 05:27:55;;;;;;;1.95;1.25;;;15.50;69.50;;;;;;5134109;27;20664;-61
2023/11/05 05:30:21;;;;;;;1.88;1.15;;;15.50;69.60;;;;;;5135301;27;20190;-59
2023/11/05 05:32:47;;;;;;;2.05;1.10;;;15.40;69.50;;;;;;5135473;27;20192;-58
2023/11/05 05:35:12;;;;;;;1.88;1.20;;;15.50;69.60;;;;;;5133863;27;20223;-59
2023/11/05 05:37:38;;;;;;;3.03;1.30;;;15.40;69.60;;;;;;5135217;27;20207;-59
2023/11/05 05:40:04;;;;;;;1.73;1.00;;;15.40;69.60;;;;;;5134540;27;20204;-59
2023/11/05 05:42:30;;;;;;;1.90;1.35;;;15.40;69.60;;;;;;5134178;27;20525;-59
2023/11/05 05:44:56;;;;;;;2.03;1.08;;;15.40;69.60;;;;;;5135200;27;20650;-59
2023/11/05 05:47:21;;;;;;;2.55;1.30;;;15.40;69.60;;;;;;5134585;27;20215;-60
2023/11/05 05:49:47;;;;;;;2.42;0.98;;;15.40;69.60;;;;;;5134604;27;20236;-60
2023/11/05 05:52:13;;;;;;;1.60;0.88;;;15.40;69.60;;;;;;5129205;27;20168;-60
2023/11/05 05:54:39;;;;;;;1.70;1.10;;;15.40;69.60;;;;;;5133851;27;20213;-59
2023/11/05 05:57:05;;;;;;;1.75;0.88;;;15.40;69.70;;;;;;5134575;27;20703;-60
2023/11/05 05:59:32;;;;;;;4.47;1.20;;;15.40;69.60;;;;;;5134779;27;20199;-59
2023/11/05 06:01:58;;;;;;;1.52;1.02;;;15.40;69.60;;;;;;5133206;27;20207;-59
2023/11/05 06:04:24;;;;;;;1.00;0.85;;;15.40;69.70;;;;;;5132687;27;20172;-59
2023/11/05 06:06:49;;;;;;;2.00;1.42;;;15.40;69.80;;;;;;5134881;27;20179;-59
2023/11/05 06:09:19;;;;;;;1.23;1.00;;;15.40;69.80;;;;;;5133633;27;20168;-60
2023/11/05 06:11:46;;;;;;;1.60;1.00;;;15.40;69.80;;;;;;5134930;27;20176;-61
2023/11/05 06:14:11;;;;;;;1.20;1.10;;;15.40;69.80;;;;;;5124359;27;20254;-60
2023/11/05 06:16:37;;;;;;;1.67;1.02;;;15.40;69.80;;;;;;5113282;28;20216;-59
2023/11/05 06:19:02;;;;;;;1.55;1.20;;;15.40;69.80;;;;;;5113820;28;20210;-59
2023/11/05 06:21:28;;;;;;;1.70;1.00;;;15.40;69.80;;;;;;5113885;28;20271;-59
2023/11/05 06:23:53;;;;;;;2.90;1.17;;;15.40;69.80;;;;;;5113232;28;20627;-59
2023/11/05 06:26:19;;;;;;;1.70;1.00;;;15.40;69.90;;;;;;5113626;28;20255;-58
2023/11/05 06:28:45;;;;;;;1.27;0.90;;;15.40;69.80;;;;;;5113024;28;20681;-58
2023/11/05 06:31:10;;;;;;;2.72;1.00;;;15.40;69.80;;;;;;5112448;28;20169;-58
2023/11/05 06:33:35;;;;;;;1.58;1.10;;;15.40;69.80;;;;;;5113623;28;20260;-58
2023/11/05 06:36:01;;;;;;;1.83;1.20;;;15.40;69.90;;;;;;5112742;28;20272;-58
2023/11/05 06:38:27;;;;;;;1.33;0.93;;;15.40;69.90;;;;;;5113181;28;20707;-58
2023/11/05 06:40:53;;;;;;;2.08;1.17;;;15.40;70.00;;;;;;5113829;28;20507;-59
2023/11/05 06:43:18;;;;;;;2.17;1.20;;;15.40;70.00;;;;;;5113188;28;20665;-58
2023/11/05 06:45:44;;;;;;;2.25;0.88;;;15.40;70.00;;;;;;5112419;28;20188;-58
2023/11/05 06:48:09;;;;;;;1.90;1.00;;;15.40;70.00;;;;;;5113265;28;20690;-59
2023/11/05 06:50:35;;;;;;;2.15;1.08;;;15.40;70.00;;;;;;5127442;27;20583;-59
2023/11/05 06:53:01;;;;;;;1.50;1.00;;;15.40;70.10;;;;;;5132780;27;20653;-59
2023/11/05 06:55:27;;;;;;;1.13;0.90;;;15.40;70.00;;;;;;5132902;27;20183;-60
2023/11/05 06:57:52;;;;;;;1.67;1.00;;;15.30;69.90;;;;;;5113235;28;20225;-59
2023/11/05 07:00:20;;;;;;;2.05;0.98;;;15.30;70.00;;;;;;5112334;28;20252;-58
2023/11/05 07:02:46;;;;;;;2.38;0.88;;;15.30;70.00;;;;;;5113030;28;20270;-59
2023/11/05 07:05:11;;;;;;;1.92;1.10;;;15.40;70.10;;;;;;5111726;28;20185;-59
2023/11/05 07:07:37;;;;;;;1.88;0.88;;;15.40;70.10;;;;;;5112727;28;20650;-59
2023/11/05 07:10:06;;;;;;;2.45;1.05;;;15.40;70.00;;;;;;5112261;28;20248;-59
2023/11/05 07:12:32;;;;;;;1.73;1.05;;;15.50;70.20;;;;;;5112508;28;20646;-59
2023/11/05 07:14:58;;;;;;;1.67;0.85;;;15.50;70.10;;;;;;5113257;28;20177;-61
2023/11/05 07:17:24;;;;;;;1.10;0.80;;;15.70;69.90;;;;;;5113293;28;20510;-58
2023/11/05 07:19:51;;;;;;;0.73;0.63;;;15.80;69.60;;;;;;5116418;28;20249;-58
2023/11/05 07:22:16;;;;;;;1.13;0.82;;;16.00;69.40;;;;;;5127363;28;20199;-59
2023/11/05 07:24:42;;;;;;;1.45;1.02;;;16.20;69.20;;;;;;5132953;28;20215;-58
2023/11/05 07:27:08;;;;;;;1.65;0.95;;;16.40;68.90;;;;;;5116292;28;20188;-59
2023/11/05 07:29:33;;;;;;;2.35;0.95;;;16.50;68.50;;;;;;5122442;28;20174;-59
2023/11/05 07:31:59;;;;;;;1.67;0.93;;;16.70;68.10;;;;;;5112384;28;20635;-59
2023/11/05 07:34:25;;;;;;;1.23;0.90;;;16.90;67.70;;;;;;5111869;28;20628;-58
2023/11/05 07:36:51;;;;;;;0.82;0.73;;;17.30;66.60;;;;;;5113225;28;20241;-58
2023/11/05 07:39:16;;;;;;;0.93;0.63;;;17.50;65.80;;;;;;5112381;28;20173;-58
2023/11/05 07:41:42;;;;;;;1.40;0.98;;;17.70;65.30;;;;;;5112116;28;20220;-58
2023/11/05 07:44:07;;;;;;;1.15;0.70;;;17.70;65.10;;;;;;5112165;28;20173;-58
2023/11/05 07:46:35;;;;;;;1.10;0.90;;;17.70;64.90;;;;;;5111984;28;20174;-60
2023/11/05 07:49:00;;;;;;;1.85;0.90;;;17.80;64.80;;;;;;5116437;28;20220;-59
2023/11/05 07:51:26;;;;;;;1.75;0.90;;;17.80;64.80;;;;;;5132684;28;20165;-60
2023/11/05 07:53:52;;;;;;;1.08;0.85;;;17.80;64.80;;;;;;5133377;28;20255;-59
2023/11/05 07:56:18;;;;;;;0.93;0.70;;;17.80;64.80;;;;;;5132377;28;20208;-60
2023/11/05 07:58:44;;;;;;;2.13;1.15;;;17.80;64.80;;;;;;5122758;28;20204;-59
2023/11/05 08:01:13;;;;;;;1.70;0.73;;;17.90;64.90;;;;;;5112286;28;20221;-66
2023/11/05 08:03:40;;;;;;;1.48;0.60;;;17.80;64.70;;;;;;5098502;28;20189;-59
2023/11/05 08:06:06;;;;;;;1.75;0.90;;;17.90;64.90;;;;;;5121667;27;20185;-59
2023/11/05 08:08:33;;;;;;;1.02;0.80;;;17.90;64.90;;;;;;5126192;27;20228;-60
2023/11/05 08:10:58;;;;;;;4.15;1.08;;;17.90;65.00;;;;;;5126145;27;20181;-60
2023/11/05 08:13:24;;;;;;;1.65;0.65;;;17.90;65.00;;;;;;5125528;27;20164;-59
2023/11/05 08:15:49;;;;;;;0.77;0.60;;;17.80;65.20;;;;;;5126564;27;20172;-60
2023/11/05 08:18:15;;;;;;;1.30;0.93;;;17.70;65.50;;;;;;5128546;27;20171;-58
2023/11/05 08:20:40;;;;;;;1.85;0.90;;;17.60;65.60;;;;;;5118588;27;20238;-59
2023/11/05 08:23:06;;;;;;;1.98;0.90;;;17.60;65.90;;;;;;5114868;28;20258;-59
2023/11/05 08:25:32;;;;;;;1.17;0.85;;;17.50;66.20;;;;;;5116096;28;20180;-59
2023/11/05 08:27:57;;;;;;;2.08;0.80;;;17.40;66.40;;;;;;5116272;28;20195;-59
2023/11/05 08:30:23;;;;;;;1.73;1.02;;;17.30;66.80;;;;;;5115063;28;20226;-58
2023/11/05 08:32:53;;;;;;;1.77;1.05;;;17.20;66.90;;;;;;5116093;28;20172;-59
2023/11/05 08:35:19;;;;;;;1.52;0.60;;;17.10;67.00;;;;;;5115781;28;20187;-58
2023/11/05 08:37:48;;;;;;;1.75;0.80;;;17.10;67.20;;;;;;5115339;28;20252;-58
2023/11/05 08:40:15;;;;;;;3.10;0.80;;;17.00;67.30;;;;;;5115539;28;20209;-58
2023/11/05 08:42:43;;;;;;;1.52;0.80;;;17.00;67.50;;;;;;5116045;28;20177;-58
2023/11/05 08:45:09;;;;;;;1.02;0.77;;;17.20;67.70;;;;;;5114798;28;20173;-59
2023/11/05 08:47:35;;;;;;;2.08;1.08;;;17.00;67.60;;;;;;5115836;28;20262;-60
2023/11/05 08:50:01;;;;;;;1.75;1.00;;;17.00;67.60;;;;;;5115741;28;20199;-59
2023/11/05 08:52:27;;;;;;;1.27;0.50;;;17.10;67.70;;;;;;5118022;27;20177;-59
2023/11/05 08:54:52;;;;;;;2.35;0.90;;;17.10;67.50;;;;;;5136294;27;20256;-59
2023/11/05 08:57:18;;;;;;;1.30;0.90;;;17.20;67.50;;;;;;5129614;27;20188;-59
2023/11/05 08:59:45;;;;;;;1.15;0.90;;;17.20;68.10;;;;;;5115346;27;20181;-58
2023/11/05 09:02:10;;;;;;;5.70;0.93;;;17.30;67.30;;;;;;5115804;27;20233;-58
2023/11/05 09:04:36;;;;;;;1.77;0.82;;;17.30;67.10;;;;;;5114889;28;20165;-58
2023/11/05 09:07:01;;;;;;;2.95;0.90;;;17.30;67.00;;;;;;5115180;28;20208;-59
2023/11/05 09:09:27;;;;;;;1.77;0.90;;;17.30;66.90;;;;;;5114903;28;20169;-59
2023/11/05 09:11:54;;;;;;;2.10;0.95;;;17.30;67.00;;;;;;5114751;28;20181;-58
2023/11/05 09:14:21;;;;;;;1.25;0.80;;;17.20;67.00;;;;;;5115043;28;20169;-58
2023/11/05 09:16:48;;;;;;;2.10;0.77;;;17.20;67.20;;;;;;5114928;28;20225;-59
2023/11/05 09:19:15;;;;;;;2.70;1.02;;;17.20;67.40;;;;;;5114366;27;20648;-58
2023/11/05 09:21:43;;;;;;;2.53;0.70;;;17.20;67.40;;;;;;5130406;27;20212;-59
2023/11/05 09:24:09;;;;;;;2.75;1.17;;;17.20;67.50;;;;;;5115235;27;20701;-58
2023/11/05 09:26:35;;;;;;;2.08;1.00;;;17.10;67.50;;;;;;5114464;28;20311;-59
2023/11/05 09:29:01;;;;;;;1.65;0.70;;;17.10;67.50;;;;;;5114550;28;20198;-59
2023/11/05 09:31:26;;;;;;;3.00;0.75;;;17.20;67.50;;;;;;5115181;28;20249;-59
2023/11/05 09:33:52;;;;;;;1.48;0.70;;;17.10;67.40;;;;;;5095775;28;20722;-59
2023/11/05 09:36:17;;;;;;;2.42;0.75;;;17.10;67.60;;;;;;5114584;28;20294;-58
2023/11/05 09:38:43;;;;;;;2.15;0.82;;;17.10;67.70;;;;;;5114895;28;20177;-59
2023/11/05 09:41:09;;;;;;;1.27;0.73;;;17.00;67.60;;;;;;5113639;28;20211;-59
2023/11/05 09:43:34;;;;;;;0.77;0.60;;;17.00;67.60;;;;;;5114551;28;20177;-60
2023/11/05 09:46:00;;;;;;;2.20;1.08;;;17.00;67.80;;;;;;5114003;28;20535;-60
2023/11/05 09:48:27;;;;;;;2.13;1.13;;;17.00;67.90;;;;;;5117546;27;20296;-60
2023/11/05 09:50:53;;;;;;;3.10;0.95;;;17.00;68.00;;;;;;5134906;27;20177;-60
2023/11/05 09:53:18;;;;;;;1.27;0.90;;;17.00;68.00;;;;;;5126634;27;20272;-60
2023/11/05 09:55:45;;;;;;;2.25;0.90;;;17.00;67.90;;;;;;5095546;28;20184;-60
2023/11/05 09:58:10;;;;;;;1.27;1.00;;;17.00;67.90;;;;;;5113863;28;20643;-60
2023/11/05 10:00:37;;;;;;;1.88;0.90;;;17.00;67.90;;;;;;5114247;28;20237;-60
2023/11/05 10:03:07;;;;;;;3.08;1.02;;;17.00;67.90;;;;;;5113080;28;20695;-60
2023/11/05 10:05:35;;;;;;;1.85;1.02;;;17.00;67.90;;;;;;5114212;28;20200;-60
2023/11/05 10:08:00;;;;;;;1.27;1.00;;;17.00;67.90;;;;;;5113062;28;20180;-61
2023/11/05 10:10:26;;;;;;;1.75;0.68;;;17.00;68.00;;;;;;5114077;28;20169;-60
2023/11/05 10:12:53;;;;;;;2.25;0.98;;;17.00;68.00;;;;;;5113729;28;20173;-60
2023/11/05 10:15:23;;;;;;;1.17;0.70;;;17.00;68.20;;;;;;5112942;28;20230;-60
2023/11/05 10:17:49;;;;;;;2.03;0.80;;;17.00;68.20;;;;;;5113847;28;20165;-60
2023/11/05 10:20:15;;;;;;;1.70;0.77;;;17.00;68.20;;;;;;5114276;27;20235;-59
2023/11/05 10:22:44;;;;;;;2.67;1.17;;;17.00;68.30;;;;;;5125675;27;20189;-60
2023/11/05 10:25:35;;;;;;;1.20;0.80;;;17.00;68.20;;;;;;5113427;28;20200;-60
2023/11/05 10:28:01;;;;;;;2.40;1.13;;;17.00;68.20;;;;;;5125559;27;20180;-60
2023/11/05 10:30:28;;;;;;;3.60;0.90;;;16.90;68.30;;;;;;5133019;27;20266;-60
2023/11/05 10:32:53;;;;;;;3.95;1.27;;;16.90;68.30;;;;;;5128504;27;20169;-60
2023/11/05 10:35:27;;;;;;;1.90;0.90;;;16.90;68.60;;;;;;5113410;28;20183;-59
2023/11/05 10:37:53;;;;;;;2.05;0.95;;;16.80;68.50;;;;;;5112953;28;20200;-60
2023/11/05 10:40:19;;;;;;;3.03;1.13;;;16.90;68.70;;;;;;5113383;28;20229;-59
2023/11/05 10:42:45;;;;;;;1.92;0.93;;;16.80;68.70;;;;;;5113777;28;20187;-60
2023/11/05 10:45:12;;;;;;;2.05;0.98;;;16.80;68.90;;;;;;5112884;28;20177;-60
2023/11/05 10:47:38;;;;;;;1.90;1.00;;;16.80;68.80;;;;;;5112743;28;20562;-60
2023/11/05 10:50:04;;;;;;;3.65;1.00;;;16.90;69.00;;;;;;5112144;28;20180;-60
2023/11/05 10:52:31;;;;;;;1.63;1.00;;;16.90;68.90;;;;;;5094707;28;20169;-60
2023/11/05 10:55:07;;;;;;;1.73;1.35;;;16.90;69.00;;;;;;5095107;28;20181;-60
2023/11/05 10:57:40;;;;;;;2.53;1.20;;;16.90;69.90;;;;;;5112029;28;20176;-60
2023/11/05 11:00:08;;;;;;;3.53;1.50;;;16.90;69.10;;;;;;5112586;28;20192;-59
2023/11/05 11:02:40;;;;;;;3.40;1.30;;;16.80;69.20;;;;;;5113078;28;20177;-59
2023/11/05 11:05:08;;;;;;;1.63;1.20;;;16.80;69.40;;;;;;5111678;28;20175;-59
2023/11/05 11:07:34;;;;;;;2.22;1.25;;;16.80;69.70;;;;;;5113151;28;20188;-59
2023/11/05 11:09:59;;;;;;;3.13;1.40;;;16.80;69.80;;;;;;5112614;28;20173;-68
2023/11/05 11:12:35;;;;;;;5.15;1.88;;;16.80;69.90;;;;;;5112096;28;20192;-68
2023/11/05 11:15:07;;;;;;;6.70;1.48;;;16.70;70.00;;;;;;5114896;28;20169;-65
2023/11/05 11:17:33;;;;;;;4.72;1.30;;;16.70;70.10;;;;;;5124539;28;20184;-66
2023/11/05 11:20:21;;;;;;;5.97;1.95;;;16.70;70.30;;;;;;5112188;28;20208;-66
2023/11/05 11:22:47;;;;;;;5.20;1.92;;;16.70;70.30;;;;;;5105018;28;20267;-67
2023/11/05 11:25:17;;;;;;;6.82;1.90;;;16.70;70.60;;;;;;5112160;28;20237;-68
2023/11/05 11:27:43;;;;;;;6.13;2.05;;;16.70;70.80;;;;;;5113073;28;20173;-68
2023/11/05 11:30:09;;;;;;;3.75;1.58;;;16.70;70.90;;;;;;5113005;28;20709;-69
2023/11/05 11:32:36;;;;;;;3.33;1.80;;;16.80;71.10;;;;;;5114088;28;20172;-68
2023/11/05 11:35:02;;;;;;;2.97;1.63;;;16.80;71.30;;;;;;5132810;28;20277;-69
2023/11/05 11:37:28;;;;;;;5.95;1.65;;;16.80;71.20;;;;;;5133337;28;20177;-69
2023/11/05 11:39:55;;;;;;;8.55;1.70;;;16.80;71.30;;;;;;5132899;28;20677;-68
2023/11/05 11:42:20;;;;;;;3.42;1.75;;;16.80;71.50;;;;;;5135888;27;20172;-69
2023/11/05 11:44:46;;;;;;;2.00;1.60;;;16.80;71.50;;;;;;5119387;27;20186;-68
2023/11/05 11:47:12;;;;;;;5.97;1.67;;;16.70;71.50;;;;;;5136596;27;20195;-67
2023/11/05 11:49:38;;;;;;;2.45;1.83;;;16.80;71.70;;;;;;5137757;27;20282;-67
2023/11/05 11:52:04;;;;;;;5.53;2.35;;;16.80;71.80;;;;;;5137115;27;20184;-70
2023/11/05 11:54:30;;;;;;;5.57;1.77;;;16.70;71.90;;;;;;5126257;27;20253;-67
2023/11/05 11:56:55;;;;;;;3.78;1.27;;;16.70;71.80;;;;;;5116833;28;20173;-68
2023/11/05 11:59:24;;;;;;;3.22;1.67;;;16.70;71.80;;;;;;5116644;28;20173;-70
2023/11/05 12:01:50;;;;;;;4.03;1.52;;;16.70;71.80;;;;;;5115846;28;20209;-67
2023/11/05 12:04:15;;;;;;;1.90;1.42;;;16.70;71.90;;;;;;5116602;28;20214;-66
2023/11/05 12:06:44;;;;;;;5.10;2.28;;;16.70;71.60;;;;;;5098258;28;20230;-68
2023/11/05 12:09:19;;;;;;;4.00;1.80;;;16.70;71.80;;;;;;5115476;28;20310;-66
2023/11/05 12:11:47;;;;;;;2.00;1.75;;;16.70;71.90;;;;;;5116384;27;20192;-68
2023/11/05 12:14:13;;;;;;;4.55;1.52;;;16.70;71.90;;;;;;5097642;28;20651;-70
2023/11/05 12:16:40;;;;;;;5.82;1.95;;;16.70;71.60;;;;;;5115412;28;20177;-68
2023/11/05 12:19:07;;;;;;;8.95;2.10;;;16.70;71.40;;;;;;5115817;28;20177;-66
2023/11/05 12:21:32;;;;;;;5.15;1.80;;;16.70;71.50;;;;;;5096103;28;20236;-68
2023/11/05 12:24:00;;;;;;;4.95;2.20;;;16.70;71.30;;;;;;5114673;28;20623;-68
2023/11/05 12:26:26;;;;;;;5.65;1.77;;;16.80;71.80;;;;;;5116074;28;20169;-68
2023/11/05 12:28:54;;;;;;;5.90;2.92;;;16.70;71.30;;;;;;5097107;28;20222;-67
2023/11/05 12:31:19;;;;;;;8.60;2.38;;;16.70;71.70;;;;;;5115691;28;20184;-67
2023/11/05 12:33:45;;;;;;;6.20;2.30;;;16.70;71.70;;;;;;5097943;28;20178;-67
2023/11/05 12:36:11;;;;;;;6.70;2.17;;;16.70;71.80;;;;;;5114450;28;20176;-69
2023/11/05 12:38:37;;;;;;;8.68;2.30;;;16.70;71.80;;;;;;5115832;28;20226;-68
2023/11/05 12:41:02;;;;;;;6.35;2.35;;;16.70;72.00;;;;;;5115698;28;20266;-69
2023/11/05 12:43:28;;;;;;;5.45;2.55;;;16.70;72.20;;;;;;5115378;28;20169;-67